Randolph C — WDI2573 — position and weather

sailwx.info

Track history (hours):
 
Tides and Currents Weather Stations Pressure Air Temp Water Temp Dewpoint Dewpoint Depression Visibility Wind Speed Wind Dir Waves Ship Positions

Randolph C

Owner: D&S Marine Service LLC, Houma, LA. More information available from US FCC via Universal Licensing System and Coast Guard Vessel Documentation Center.

Last reported at 2017-Nov-19 03:57 UTC. Time now 2017-Nov-19 18:12 UTC.
Position N 29°33' W 090°24'.

Length 206 m; draft 3 m.

Type: . MMSI: 367679550.

Date/timePositionNaut miles runAvg speedWind from/ knotsBaromVisibWave heightAir tempDewpointWater temp
2017-Nov-19 03:57N 29°33' W 090°24'4 2.4
2017-Nov-19 02:23N 29°33' W 090°28'2 5.4
2017-Nov-19 02:00N 29°34' W 090°31'3 5.1
2017-Nov-19 01:30N 29°34' W 090°34'2 4.5
2017-Nov-19 01:00N 29°35' W 090°36'2 3.9
2017-Nov-19 00:30N 29°35' W 090°38'1 2.6
2017-Nov-19 00:00N 29°36' W 090°39'2 4.5
2017-Nov-18 23:30N 29°37' W 090°42'2 3.8
2017-Nov-18 23:00N 29°35' W 090°43'2 3.8
2017-Nov-18 22:30N 29°34' W 090°44'2 4.0
2017-Nov-18 22:00N 29°32' W 090°46'2 4.9
2017-Nov-18 21:30N 29°32' W 090°49'3 5.4
2017-Nov-18 20:56N 29°32' W 090°52'2 5.7
2017-Nov-18 20:30N 29°33' W 090°55'3 5.4
2017-Nov-18 19:57N 29°35' W 090°58'53 4.0
2017-Nov-18 06:35N 29°51' W 091°56'0 5.2
2017-Nov-18 06:30N 29°51' W 091°56'2 4.8
2017-Nov-18 06:00N 29°50' W 091°59'2 4.5
2017-Nov-18 05:30N 29°49' W 092°01'2 4.4
2017-Nov-18 05:00N 29°48' W 092°04'2 4.5
2017-Nov-18 04:30N 29°48' W 092°06'2 4.5
2017-Nov-18 04:00N 29°47' W 092°09'2 4.0
2017-Nov-18 03:30N 29°47' W 092°11'1 2.8
2017-Nov-18 03:00N 29°47' W 092°12'1 1.8
2017-Nov-18 02:30N 29°48' W 092°13'0 0.1
2017-Nov-18 02:00N 29°48' W 092°13'1 1.6
2017-Nov-18 01:30N 29°48' W 092°14'2 4.2
2017-Nov-18 01:00N 29°49' W 092°17'1 2.1
2017-Nov-18 00:30N 29°49' W 092°18'0 0.0
2017-Nov-18 00:00N 29°49' W 092°18'0 0.0
2017-Nov-17 23:30N 29°49' W 092°18'0 0.8
2017-Nov-17 23:00N 29°50' W 092°18'4 6.5
2017-Nov-17 22:28N 29°51' W 092°22'35 6.5
2017-Nov-17 17:05N 29°56' W 093°02'0 6.5
2017-Nov-17 17:00N 29°56' W 093°02'3 6.5
2017-Nov-17 16:29N 29°56' W 093°06'3 6.1
2017-Nov-17 16:00N 29°56' W 093°10'3 6.3
2017-Nov-17 15:30N 29°59' W 093°12'3 6.1
2017-Nov-17 15:00N 30°01' W 093°14'3 5.6
2017-Nov-17 14:30N 30°03' W 093°16'2 4.8
2017-Nov-17 14:00N 30°05' W 093°18'1 2.1
2017-Nov-17 13:30N 30°06' W 093°18'3 6.3
2017-Nov-17 13:00N 30°04' W 093°21'1 1.4
2017-Nov-17 12:30N 30°04' W 093°22'0 0.3
2017-Nov-17 12:00N 30°04' W 093°22'0 0.1
2017-Nov-17 11:30N 30°04' W 093°22'0 0.8
2017-Nov-17 11:00N 30°04' W 093°21'1 2.5
2017-Nov-17 10:30N 30°04' W 093°20'2 3.0
2017-Nov-17 10:00N 30°06' W 093°20'2 4.3
2017-Nov-17 09:30N 30°08' W 093°20'0 0.8
2017-Nov-17 09:00N 30°08' W 093°19'0 0.0
2017-Nov-17 08:30N 30°08' W 093°19'0 0.0
2017-Nov-17 08:00N 30°08' W 093°19'0 0.0
2017-Nov-17 07:30N 30°08' W 093°19'0 0.0
2017-Nov-17 07:00N 30°08' W 093°19'0 0.0
2017-Nov-17 06:30N 30°08' W 093°19'0 0.0
2017-Nov-17 06:01N 30°08' W 093°19'0 0.0
2017-Nov-17 05:30N 30°08' W 093°19'0 0.0
2017-Nov-17 05:00N 30°08' W 093°19'0 0.0
2017-Nov-17 04:30N 30°08' W 093°19'0 0.0
2017-Nov-17 04:00N 30°08' W 093°19'0 0.0
2017-Nov-17 03:31N 30°08' W 093°19'0 0.0
2017-Nov-17 03:00N 30°08' W 093°19'0 0.0
2017-Nov-17 02:30N 30°08' W 093°19'0 0.0
2017-Nov-17 02:00N 30°08' W 093°19'0 0.0
2017-Nov-17 01:30N 30°08' W 093°19'0 0.0
2017-Nov-17 01:00N 30°08' W 093°19'0 0.0
2017-Nov-17 00:30N 30°08' W 093°19'0 0.0
2017-Nov-17 00:00N 30°08' W 093°19'0 0.0
2017-Nov-16 23:30N 30°08' W 093°19'0 0.0
2017-Nov-16 23:00N 30°08' W 093°19'0 0.0
2017-Nov-16 22:30N 30°08' W 093°19'0 0.0
2017-Nov-16 22:00N 30°08' W 093°19'0 0.0
2017-Nov-16 21:30N 30°08' W 093°19'0 0.0
2017-Nov-16 21:00N 30°08' W 093°19'0 0.0
2017-Nov-16 20:30N 30°08' W 093°19'0 0.0
2017-Nov-16 20:00N 30°08' W 093°19'0 0.0
2017-Nov-16 19:30N 30°08' W 093°19'0 0.0
2017-Nov-16 19:00N 30°08' W 093°19'0 0.0
2017-Nov-16 18:30N 30°08' W 093°19'0 0.0
2017-Nov-16 18:00N 30°08' W 093°19'0 0.0
2017-Nov-16 17:30N 30°08' W 093°19'0 0.0
2017-Nov-16 17:00N 30°08' W 093°19'0 0.0
2017-Nov-16 16:30N 30°08' W 093°19'0 0.0
2017-Nov-16 16:00N 30°08' W 093°19'0 0.0
2017-Nov-16 15:30N 30°08' W 093°19'0 0.0
2017-Nov-16 15:00N 30°08' W 093°19'0 0.0
2017-Nov-16 14:30N 30°08' W 093°19'0 0.0
2017-Nov-16 14:00N 30°08' W 093°19'0 0.0
2017-Nov-16 13:30N 30°08' W 093°19'0 0.0
2017-Nov-16 13:00N 30°08' W 093°19'0 0.0
2017-Nov-16 12:30N 30°08' W 093°19'0 0.0
2017-Nov-16 12:00N 30°08' W 093°19'0 0.0
2017-Nov-16 11:30N 30°08' W 093°19'0 0.0
2017-Nov-16 11:00N 30°08' W 093°19'0 0.0
2017-Nov-16 10:30N 30°08' W 093°19'0 0.0
2017-Nov-16 10:00N 30°08' W 093°19'0 0.1
2017-Nov-16 09:30N 30°08' W 093°19'0 0.7
2017-Nov-16 09:00N 30°08' W 093°20'0 0.0
2017-Nov-16 08:30N 30°08' W 093°20'2 3.9
2017-Nov-16 08:00N 30°06' W 093°20'3 5.1
2017-Nov-16 07:30N 30°04' W 093°21'1 1.1
2017-Nov-16 07:00N 30°04' W 093°22'0 0.0
2017-Nov-16 06:30N 30°04' W 093°22'0 0.0
2017-Nov-16 06:00N 30°04' W 093°21'0 0.0
2017-Nov-16 05:30N 30°04' W 093°21'0 0.0
2017-Nov-16 05:00N 30°04' W 093°21'0 0.0
2017-Nov-16 04:31N 30°04' W 093°21'0 0.0
2017-Nov-16 04:00N 30°04' W 093°21'0 0.0
2017-Nov-16 03:30N 30°04' W 093°21'0 0.0
2017-Nov-16 03:00N 30°04' W 093°21'0 0.0
2017-Nov-16 02:30N 30°04' W 093°21'0 0.0
2017-Nov-16 02:00N 30°04' W 093°21'0 0.0
2017-Nov-16 01:31N 30°04' W 093°21'0 0.0
2017-Nov-16 01:00N 30°04' W 093°21'0 0.0
2017-Nov-16 00:30N 30°04' W 093°21'0 0.0
2017-Nov-16 00:00N 30°04' W 093°21'0 0.0
2017-Nov-15 23:30N 30°04' W 093°21'0 0.9
2017-Nov-15 23:00N 30°04' W 093°22'1 1.2
2017-Nov-15 22:30N 30°04' W 093°21'0 0.0
2017-Nov-15 22:00N 30°04' W 093°21'0 0.0
2017-Nov-15 21:30N 30°04' W 093°21'0 0.0
2017-Nov-15 21:00N 30°04' W 093°21'0 0.0
2017-Nov-15 20:30N 30°04' W 093°21'0 0.0
2017-Nov-15 20:00N 30°04' W 093°21'0 0.0
2017-Nov-15 19:30N 30°04' W 093°21'0 0.0
2017-Nov-15 19:00N 30°04' W 093°21'0 0.3
2017-Nov-15 18:30N 30°04' W 093°21'0 0.0
2017-Nov-15 18:00N 30°04' W 093°21'0 0.0
2017-Nov-15 17:30N 30°04' W 093°21'0 0.0
2017-Nov-15 17:00N 30°04' W 093°21'0 0.0
2017-Nov-15 16:30N 30°04' W 093°21'0 0.0
2017-Nov-15 16:01N 30°04' W 093°21'0 0.0
2017-Nov-15 15:30N 30°04' W 093°21'0 0.0
2017-Nov-15 15:00N 30°04' W 093°21'0 0.0
2017-Nov-15 14:30N 30°04' W 093°21'0 0.0
2017-Nov-15 14:00N 30°04' W 093°21'0 0.0
2017-Nov-15 13:30N 30°04' W 093°21'0 0.0
2017-Nov-15 13:00N 30°04' W 093°21'0 0.0
2017-Nov-15 12:30N 30°04' W 093°21'0 0.0
2017-Nov-15 12:00N 30°04' W 093°21'0 0.0
2017-Nov-15 11:30N 30°04' W 093°21'0 0.0
2017-Nov-15 11:00N 30°04' W 093°21'0 0.0
2017-Nov-15 10:30N 30°04' W 093°21'0 0.0
2017-Nov-15 10:00N 30°04' W 093°21'0 0.0
2017-Nov-15 09:31N 30°04' W 093°21'0 0.0
2017-Nov-15 09:00N 30°04' W 093°21'0 0.0
2017-Nov-15 08:30N 30°04' W 093°21'0 0.0
2017-Nov-15 08:00N 30°04' W 093°21'0 0.0
2017-Nov-15 07:30N 30°04' W 093°21'0 0.0
2017-Nov-15 07:00N 30°04' W 093°21'0 0.0
2017-Nov-15 06:30N 30°04' W 093°21'0 0.0
2017-Nov-15 06:00N 30°04' W 093°21'0 0.0
2017-Nov-15 05:30N 30°04' W 093°21'0 0.0
2017-Nov-15 05:00N 30°04' W 093°21'0 0.0
2017-Nov-15 04:30N 30°04' W 093°21'0 0.0
2017-Nov-15 04:00N 30°04' W 093°21'0 0.0
2017-Nov-15 03:30N 30°04' W 093°21'0 0.0
2017-Nov-15 03:00N 30°04' W 093°21'0 0.3
2017-Nov-15 02:30N 30°04' W 093°21'0 0.3
2017-Nov-15 02:00N 30°04' W 093°21'1 3.0
2017-Nov-15 01:30N 30°05' W 093°20'0 1.0
2017-Nov-15 01:00N 30°05' W 093°20'2 3.8
2017-Nov-15 00:30N 30°07' W 093°20'3 5.7
2017-Nov-15 00:00N 30°10' W 093°19'1 1.5
2017-Nov-14 23:30N 30°10' W 093°19'0 0.0
2017-Nov-14 23:00N 30°10' W 093°19'0 0.0
2017-Nov-14 22:30N 30°10' W 093°19'0 0.1
2017-Nov-14 22:00N 30°10' W 093°19'0 0.0
2017-Nov-14 21:30N 30°10' W 093°19'0 0.0
2017-Nov-14 21:00N 30°10' W 093°19'0 0.0
2017-Nov-14 20:30N 30°10' W 093°19'0 0.0
2017-Nov-14 20:00N 30°10' W 093°19'0 0.0
2017-Nov-14 19:30N 30°10' W 093°19'0 0.0
2017-Nov-14 19:00N 30°10' W 093°19'0 0.0
2017-Nov-14 18:30N 30°10' W 093°19'0 0.0
2017-Nov-14 18:00N 30°10' W 093°19'0 0.0
2017-Nov-14 17:30N 30°10' W 093°19'0 0.0
2017-Nov-14 17:00N 30°10' W 093°19'0 0.0
2017-Nov-14 16:30N 30°10' W 093°19'0 0.0
2017-Nov-14 16:00N 30°10' W 093°19'0 0.0
2017-Nov-14 15:30N 30°10' W 093°19'0 0.0
2017-Nov-14 15:00N 30°10' W 093°19'0 0.0
2017-Nov-14 14:30N 30°10' W 093°19'0 0.0
2017-Nov-14 13:59N 30°10' W 093°19'0 0.0
2017-Nov-14 13:30N 30°10' W 093°19'0 0.0
2017-Nov-14 13:00N 30°10' W 093°19'0 0.0
2017-Nov-14 12:30N 30°10' W 093°19'0 0.0
2017-Nov-14 11:57N 30°10' W 093°19'0 0.0
2017-Nov-14 11:25N 30°10' W 093°19'0 0.0
2017-Nov-14 10:59N 30°10' W 093°19'0 0.0
2017-Nov-14 10:29N 30°10' W 093°19'7 0.8
2017-Nov-14 01:42N 30°04' W 093°22'0 0.3
2017-Nov-14 01:29N 30°04' W 093°22'0 0.0
2017-Nov-14 00:59N 30°04' W 093°22'0 0.0
2017-Nov-14 00:29N 30°04' W 093°22'0 0.0
2017-Nov-13 22:49N 30°04' W 093°22'0 0.0
2017-Nov-13 22:29N 30°04' W 093°22'0 0.0
2017-Nov-13 21:59N 30°04' W 093°22'0 0.0
2017-Nov-13 01:04N 30°04' W 093°22'0 0.0
2017-Nov-13 00:59N 30°04' W 093°22'0 0.0
2017-Nov-13 00:29N 30°04' W 093°22'0 0.0
2017-Nov-12 23:59N 30°04' W 093°22'0 0.0
2017-Nov-12 23:29N 30°04' W 093°22'0 0.0
2017-Nov-12 22:59N 30°04' W 093°22'0 0.0
2017-Nov-12 22:29N 30°04' W 093°22'0 0.0
2017-Nov-12 21:59N 30°04' W 093°22'0 0.0
2017-Nov-12 21:29N 30°04' W 093°22'0 0.0
2017-Nov-12 20:59N 30°04' W 093°22'0 0.0
2017-Nov-12 20:29N 30°04' W 093°22'0 0.0
2017-Nov-12 19:59N 30°04' W 093°22'0 0.0
2017-Nov-12 19:29N 30°04' W 093°22'0 0.0
2017-Nov-12 18:59N 30°04' W 093°22'2 1.4
2017-Nov-12 17:38N 30°05' W 093°20'0 1.9
2017-Nov-12 17:27N 30°05' W 093°20'2 3.7
2017-Nov-12 16:59N 30°07' W 093°20'2 3.3
2017-Nov-12 16:30N 30°08' W 093°19'0 0.0
2017-Nov-12 15:59N 30°08' W 093°19'0 0.1
2017-Nov-12 15:29N 30°08' W 093°19'0 0.0
2017-Nov-12 14:59N 30°08' W 093°19'0 0.0
2017-Nov-12 14:27N 30°08' W 093°19'0 0.0
2017-Nov-12 13:55N 30°08' W 093°19'0 0.0
2017-Nov-12 13:27N 30°08' W 093°19'0 0.0
2017-Nov-12 12:59N 30°08' W 093°19'0 0.0
2017-Nov-12 12:29N 30°08' W 093°19'0 0.0
2017-Nov-12 11:53N 30°08' W 093°19'2 0.0
2017-Nov-10 16:30N 30°10' W 093°19'0 0.0
2017-Nov-10 16:00N 30°10' W 093°19'0 0.0
2017-Nov-10 15:30N 30°10' W 093°19'0 0.0
2017-Nov-10 15:00N 30°10' W 093°19'0 0.0
2017-Nov-10 14:31N 30°10' W 093°19'0 0.0
2017-Nov-10 14:00N 30°10' W 093°19'0 0.0
2017-Nov-10 13:30N 30°10' W 093°19'0 0.0
2017-Nov-10 13:00N 30°10' W 093°19'0 0.0
2017-Nov-10 12:30N 30°10' W 093°19'0 0.1
2017-Nov-10 12:00N 30°10' W 093°19'0 0.0
2017-Nov-10 11:30N 30°10' W 093°19'0 0.1
2017-Nov-10 11:00N 30°10' W 093°19'0 0.0
2017-Nov-10 10:30N 30°10' W 093°19'0 0.0
2017-Nov-10 10:00N 30°10' W 093°19'0 0.0
2017-Nov-10 09:30N 30°10' W 093°19'0 0.0
2017-Nov-10 09:00N 30°10' W 093°19'0 0.0
2017-Nov-10 08:30N 30°10' W 093°19'0 0.0
2017-Nov-10 08:00N 30°10' W 093°19'0 0.0
2017-Nov-10 07:30N 30°10' W 093°19'0 0.0
2017-Nov-10 07:00N 30°10' W 093°19'0 0.0
2017-Nov-10 06:30N 30°10' W 093°19'0 0.0
2017-Nov-10 06:00N 30°10' W 093°19'0 0.0
2017-Nov-10 05:30N 30°10' W 093°19'0 0.6
2017-Nov-10 05:01N 30°10' W 093°19'1 2.9
2017-Nov-10 04:30N 30°09' W 093°20'2 3.7
2017-Nov-10 04:00N 30°07' W 093°20'2 3.4
2017-Nov-10 03:30N 30°05' W 093°20'1 2.8
2017-Nov-10 03:00N 30°04' W 093°21'1 2.4
2017-Nov-10 02:30N 30°04' W 093°22'0 0.1
2017-Nov-10 02:00N 30°04' W 093°22'0 0.1
2017-Nov-10 01:31N 30°04' W 093°22'0 0.0
2017-Nov-10 01:00N 30°04' W 093°22'0 0.0
2017-Nov-10 00:30N 30°04' W 093°22'0 0.0
2017-Nov-10 00:00N 30°04' W 093°22'1 1.1
2017-Nov-09 23:30N 30°04' W 093°21'1 1.2
2017-Nov-09 23:00N 30°04' W 093°22'0 0.0
2017-Nov-09 22:30N 30°04' W 093°22'0 0.0
2017-Nov-09 22:00N 30°04' W 093°22'0 0.0
2017-Nov-09 21:30N 30°04' W 093°22'0 0.2
2017-Nov-09 21:00N 30°04' W 093°22'0 1.0
2017-Nov-09 20:30N 30°04' W 093°21'0 0.0
2017-Nov-09 20:00N 30°04' W 093°21'0 0.1
2017-Nov-09 19:30N 30°04' W 093°21'1 1.1
2017-Nov-09 19:00N 30°04' W 093°22'0 0.0
2017-Nov-09 18:30N 30°04' W 093°22'0 0.0
2017-Nov-09 18:00N 30°04' W 093°22'0 0.0
2017-Nov-09 17:30N 30°04' W 093°22'0 0.0
2017-Nov-09 17:00N 30°04' W 093°22'0 0.0
2017-Nov-09 16:30N 30°04' W 093°22'0 0.0
2017-Nov-09 16:00N 30°04' W 093°22'0 0.0
2017-Nov-09 15:30N 30°04' W 093°22'0 0.0
2017-Nov-09 15:00N 30°04' W 093°22'0 0.0
2017-Nov-09 14:30N 30°04' W 093°22'0 0.0
2017-Nov-09 14:00N 30°04' W 093°22'0 0.0
2017-Nov-09 13:30N 30°04' W 093°22'0 0.9
2017-Nov-09 13:00N 30°04' W 093°21'3 6.6
2017-Nov-09 12:30N 30°06' W 093°19'1 1.2
2017-Nov-09 12:00N 30°06' W 093°18'0 0.0
2017-Nov-09 11:30N 30°06' W 093°18'0 0.0
2017-Nov-09 11:00N 30°06' W 093°18'0 0.0
2017-Nov-09 10:30N 30°06' W 093°18'0 0.0
2017-Nov-09 10:01N 30°06' W 093°18'0 0.0
2017-Nov-09 09:30N 30°06' W 093°18'0 0.0
2017-Nov-09 09:00N 30°06' W 093°18'3 5.4
2017-Nov-09 08:30N 30°04' W 093°20'2 3.2
2017-Nov-09 08:00N 30°04' W 093°22'0 0.0
2017-Nov-09 07:31N 30°04' W 093°22'0 0.0
2017-Nov-09 07:00N 30°04' W 093°22'0 0.0
2017-Nov-09 06:30N 30°04' W 093°22'0 0.0
2017-Nov-09 06:00N 30°04' W 093°22'0 0.0
2017-Nov-09 05:30N 30°04' W 093°22'0 0.0
2017-Nov-09 05:00N 30°04' W 093°22'0 0.0
2017-Nov-09 04:30N 30°04' W 093°22'0 0.0
2017-Nov-09 04:00N 30°04' W 093°22'  
Track history (hours):
 
Tides and Currents Weather Stations Pressure Air Temp Water Temp Dewpoint Dewpoint Depression Visibility Wind Speed Wind Dir Waves Ship Positions

Randolph C

Owner: D&S Marine Service LLC, Houma, LA. More information available from US FCC via Universal Licensing System and Coast Guard Vessel Documentation Center.

Last reported at 2017-Nov-19 03:57 UTC. Time now 2017-Nov-19 18:12 UTC.
Position N 29°33' W 090°24'.

Length 206 m; draft 3 m.

Type: . MMSI: 367679550.

Date/timePositionNaut miles runAvg speedWind from/ knotsBaromVisibWave heightAir tempDewpointWater temp
2017-Nov-19 03:57N 29°33' W 090°24'4 2.4
2017-Nov-19 02:23N 29°33' W 090°28'2 5.4
2017-Nov-19 02:00N 29°34' W 090°31'3 5.1
2017-Nov-19 01:30N 29°34' W 090°34'2 4.5
2017-Nov-19 01:00N 29°35' W 090°36'2 3.9
2017-Nov-19 00:30N 29°35' W 090°38'1 2.6
2017-Nov-19 00:00N 29°36' W 090°39'2 4.5
2017-Nov-18 23:30N 29°37' W 090°42'2 3.8
2017-Nov-18 23:00N 29°35' W 090°43'2 3.8
2017-Nov-18 22:30N 29°34' W 090°44'2 4.0
2017-Nov-18 22:00N 29°32' W 090°46'2 4.9
2017-Nov-18 21:30N 29°32' W 090°49'3 5.4
2017-Nov-18 20:56N 29°32' W 090°52'2 5.7
2017-Nov-18 20:30N 29°33' W 090°55'3 5.4
2017-Nov-18 19:57N 29°35' W 090°58'53 4.0
2017-Nov-18 06:35N 29°51' W 091°56'0 5.2
2017-Nov-18 06:30N 29°51' W 091°56'2 4.8
2017-Nov-18 06:00N 29°50' W 091°59'2 4.5
2017-Nov-18 05:30N 29°49' W 092°01'2 4.4
2017-Nov-18 05:00N 29°48' W 092°04'2 4.5
2017-Nov-18 04:30N 29°48' W 092°06'2 4.5
2017-Nov-18 04:00N 29°47' W 092°09'2 4.0
2017-Nov-18 03:30N 29°47' W 092°11'1 2.8
2017-Nov-18 03:00N 29°47' W 092°12'1 1.8
2017-Nov-18 02:30N 29°48' W 092°13'0 0.1
2017-Nov-18 02:00N 29°48' W 092°13'1 1.6
2017-Nov-18 01:30N 29°48' W 092°14'2 4.2
2017-Nov-18 01:00N 29°49' W 092°17'1 2.1
2017-Nov-18 00:30N 29°49' W 092°18'0 0.0
2017-Nov-18 00:00N 29°49' W 092°18'0 0.0
2017-Nov-17 23:30N 29°49' W 092°18'0 0.8
2017-Nov-17 23:00N 29°50' W 092°18'4 6.5
2017-Nov-17 22:28N 29°51' W 092°22'35 6.5
2017-Nov-17 17:05N 29°56' W 093°02'0 6.5
2017-Nov-17 17:00N 29°56' W 093°02'3 6.5
2017-Nov-17 16:29N 29°56' W 093°06'3 6.1
2017-Nov-17 16:00N 29°56' W 093°10'3 6.3
2017-Nov-17 15:30N 29°59' W 093°12'3 6.1
2017-Nov-17 15:00N 30°01' W 093°14'3 5.6
2017-Nov-17 14:30N 30°03' W 093°16'2 4.8
2017-Nov-17 14:00N 30°05' W 093°18'1 2.1
2017-Nov-17 13:30N 30°06' W 093°18'3 6.3
2017-Nov-17 13:00N 30°04' W 093°21'1 1.4
2017-Nov-17 12:30N 30°04' W 093°22'0 0.3
2017-Nov-17 12:00N 30°04' W 093°22'0 0.1
2017-Nov-17 11:30N 30°04' W 093°22'0 0.8
2017-Nov-17 11:00N 30°04' W 093°21'1 2.5
2017-Nov-17 10:30N 30°04' W 093°20'2 3.0
2017-Nov-17 10:00N 30°06' W 093°20'2 4.3
2017-Nov-17 09:30N 30°08' W 093°20'0 0.8
2017-Nov-17 09:00N 30°08' W 093°19'0 0.0
2017-Nov-17 08:30N 30°08' W 093°19'0 0.0
2017-Nov-17 08:00N 30°08' W 093°19'0 0.0
2017-Nov-17 07:30N 30°08' W 093°19'0 0.0
2017-Nov-17 07:00N 30°08' W 093°19'0 0.0
2017-Nov-17 06:30N 30°08' W 093°19'0 0.0
2017-Nov-17 06:01N 30°08' W 093°19'0 0.0
2017-Nov-17 05:30N 30°08' W 093°19'0 0.0
2017-Nov-17 05:00N 30°08' W 093°19'0 0.0
2017-Nov-17 04:30N 30°08' W 093°19'0 0.0
2017-Nov-17 04:00N 30°08' W 093°19'0 0.0
2017-Nov-17 03:31N 30°08' W 093°19'0 0.0
2017-Nov-17 03:00N 30°08' W 093°19'0 0.0
2017-Nov-17 02:30N 30°08' W 093°19'0 0.0
2017-Nov-17 02:00N 30°08' W 093°19'0 0.0
2017-Nov-17 01:30N 30°08' W 093°19'0 0.0
2017-Nov-17 01:00N 30°08' W 093°19'0 0.0
2017-Nov-17 00:30N 30°08' W 093°19'0 0.0
2017-Nov-17 00:00N 30°08' W 093°19'0 0.0
2017-Nov-16 23:30N 30°08' W 093°19'0 0.0
2017-Nov-16 23:00N 30°08' W 093°19'0 0.0
2017-Nov-16 22:30N 30°08' W 093°19'0 0.0
2017-Nov-16 22:00N 30°08' W 093°19'0 0.0
2017-Nov-16 21:30N 30°08' W 093°19'0 0.0
2017-Nov-16 21:00N 30°08' W 093°19'0 0.0
2017-Nov-16 20:30N 30°08' W 093°19'0 0.0
2017-Nov-16 20:00N 30°08' W 093°19'0 0.0
2017-Nov-16 19:30N 30°08' W 093°19'0 0.0
2017-Nov-16 19:00N 30°08' W 093°19'0 0.0
2017-Nov-16 18:30N 30°08' W 093°19'0 0.0
2017-Nov-16 18:00N 30°08' W 093°19'0 0.0
2017-Nov-16 17:30N 30°08' W 093°19'0 0.0
2017-Nov-16 17:00N 30°08' W 093°19'0 0.0
2017-Nov-16 16:30N 30°08' W 093°19'0 0.0
2017-Nov-16 16:00N 30°08' W 093°19'0 0.0
2017-Nov-16 15:30N 30°08' W 093°19'0 0.0
2017-Nov-16 15:00N 30°08' W 093°19'0 0.0
2017-Nov-16 14:30N 30°08' W 093°19'0 0.0
2017-Nov-16 14:00N 30°08' W 093°19'0 0.0
2017-Nov-16 13:30N 30°08' W 093°19'0 0.0
2017-Nov-16 13:00N 30°08' W 093°19'0 0.0
2017-Nov-16 12:30N 30°08' W 093°19'0 0.0
2017-Nov-16 12:00N 30°08' W 093°19'0 0.0
2017-Nov-16 11:30N 30°08' W 093°19'0 0.0
2017-Nov-16 11:00N 30°08' W 093°19'0 0.0
2017-Nov-16 10:30N 30°08' W 093°19'0 0.0
2017-Nov-16 10:00N 30°08' W 093°19'0 0.1
2017-Nov-16 09:30N 30°08' W 093°19'0 0.7
2017-Nov-16 09:00N 30°08' W 093°20'0 0.0
2017-Nov-16 08:30N 30°08' W 093°20'2 3.9
2017-Nov-16 08:00N 30°06' W 093°20'3 5.1
2017-Nov-16 07:30N 30°04' W 093°21'1 1.1
2017-Nov-16 07:00N 30°04' W 093°22'0 0.0
2017-Nov-16 06:30N 30°04' W 093°22'0 0.0
2017-Nov-16 06:00N 30°04' W 093°21'0 0.0
2017-Nov-16 05:30N 30°04' W 093°21'0 0.0
2017-Nov-16 05:00N 30°04' W 093°21'0 0.0
2017-Nov-16 04:31N 30°04' W 093°21'0 0.0
2017-Nov-16 04:00N 30°04' W 093°21'0 0.0
2017-Nov-16 03:30N 30°04' W 093°21'0 0.0
2017-Nov-16 03:00N 30°04' W 093°21'0 0.0
2017-Nov-16 02:30N 30°04' W 093°21'0 0.0
2017-Nov-16 02:00N 30°04' W 093°21'0 0.0
2017-Nov-16 01:31N 30°04' W 093°21'0 0.0
2017-Nov-16 01:00N 30°04' W 093°21'0 0.0
2017-Nov-16 00:30N 30°04' W 093°21'0 0.0
2017-Nov-16 00:00N 30°04' W 093°21'0 0.0
2017-Nov-15 23:30N 30°04' W 093°21'0 0.9
2017-Nov-15 23:00N 30°04' W 093°22'1 1.2
2017-Nov-15 22:30N 30°04' W 093°21'0 0.0
2017-Nov-15 22:00N 30°04' W 093°21'0 0.0
2017-Nov-15 21:30N 30°04' W 093°21'0 0.0
2017-Nov-15 21:00N 30°04' W 093°21'0 0.0
2017-Nov-15 20:30N 30°04' W 093°21'0 0.0
2017-Nov-15 20:00N 30°04' W 093°21'0 0.0
2017-Nov-15 19:30N 30°04' W 093°21'0 0.0
2017-Nov-15 19:00N 30°04' W 093°21'0 0.3
2017-Nov-15 18:30N 30°04' W 093°21'0 0.0
2017-Nov-15 18:00N 30°04' W 093°21'0 0.0
2017-Nov-15 17:30N 30°04' W 093°21'0 0.0
2017-Nov-15 17:00N 30°04' W 093°21'0 0.0
2017-Nov-15 16:30N 30°04' W 093°21'0 0.0
2017-Nov-15 16:01N 30°04' W 093°21'0 0.0
2017-Nov-15 15:30N 30°04' W 093°21'0 0.0
2017-Nov-15 15:00N 30°04' W 093°21'0 0.0
2017-Nov-15 14:30N 30°04' W 093°21'0 0.0
2017-Nov-15 14:00N 30°04' W 093°21'0 0.0
2017-Nov-15 13:30N 30°04' W 093°21'0 0.0
2017-Nov-15 13:00N 30°04' W 093°21'0 0.0
2017-Nov-15 12:30N 30°04' W 093°21'0 0.0
2017-Nov-15 12:00N 30°04' W 093°21'0 0.0
2017-Nov-15 11:30N 30°04' W 093°21'0 0.0
2017-Nov-15 11:00N 30°04' W 093°21'0 0.0
2017-Nov-15 10:30N 30°04' W 093°21'0 0.0
2017-Nov-15 10:00N 30°04' W 093°21'0 0.0
2017-Nov-15 09:31N 30°04' W 093°21'0 0.0
2017-Nov-15 09:00N 30°04' W 093°21'0 0.0
2017-Nov-15 08:30N 30°04' W 093°21'0 0.0
2017-Nov-15 08:00N 30°04' W 093°21'0 0.0
2017-Nov-15 07:30N 30°04' W 093°21'0 0.0
2017-Nov-15 07:00N 30°04' W 093°21'0 0.0
2017-Nov-15 06:30N 30°04' W 093°21'0 0.0
2017-Nov-15 06:00N 30°04' W 093°21'0 0.0
2017-Nov-15 05:30N 30°04' W 093°21'0 0.0
2017-Nov-15 05:00N 30°04' W 093°21'0 0.0
2017-Nov-15 04:30N 30°04' W 093°21'0 0.0
2017-Nov-15 04:00N 30°04' W 093°21'0 0.0
2017-Nov-15 03:30N 30°04' W 093°21'0 0.0
2017-Nov-15 03:00N 30°04' W 093°21'0 0.3
2017-Nov-15 02:30N 30°04' W 093°21'0 0.3
2017-Nov-15 02:00N 30°04' W 093°21'1 3.0
2017-Nov-15 01:30N 30°05' W 093°20'0 1.0
2017-Nov-15 01:00N 30°05' W 093°20'2 3.8
2017-Nov-15 00:30N 30°07' W 093°20'3 5.7
2017-Nov-15 00:00N 30°10' W 093°19'1 1.5
2017-Nov-14 23:30N 30°10' W 093°19'0 0.0
2017-Nov-14 23:00N 30°10' W 093°19'0 0.0
2017-Nov-14 22:30N 30°10' W 093°19'0 0.1
2017-Nov-14 22:00N 30°10' W 093°19'0 0.0
2017-Nov-14 21:30N 30°10' W 093°19'0 0.0
2017-Nov-14 21:00N 30°10' W 093°19'0 0.0
2017-Nov-14 20:30N 30°10' W 093°19'0 0.0
2017-Nov-14 20:00N 30°10' W 093°19'0 0.0
2017-Nov-14 19:30N 30°10' W 093°19'0 0.0
2017-Nov-14 19:00N 30°10' W 093°19'0 0.0
2017-Nov-14 18:30N 30°10' W 093°19'0 0.0
2017-Nov-14 18:00N 30°10' W 093°19'0 0.0
2017-Nov-14 17:30N 30°10' W 093°19'0 0.0
2017-Nov-14 17:00N 30°10' W 093°19'0 0.0
2017-Nov-14 16:30N 30°10' W 093°19'0 0.0
2017-Nov-14 16:00N 30°10' W 093°19'0 0.0
2017-Nov-14 15:30N 30°10' W 093°19'0 0.0
2017-Nov-14 15:00N 30°10' W 093°19'0 0.0
2017-Nov-14 14:30N 30°10' W 093°19'0 0.0
2017-Nov-14 13:59N 30°10' W 093°19'0 0.0
2017-Nov-14 13:30N 30°10' W 093°19'0 0.0
2017-Nov-14 13:00N 30°10' W 093°19'0 0.0
2017-Nov-14 12:30N 30°10' W 093°19'0 0.0
2017-Nov-14 11:57N 30°10' W 093°19'0 0.0
2017-Nov-14 11:25N 30°10' W 093°19'0 0.0
2017-Nov-14 10:59N 30°10' W 093°19'0 0.0
2017-Nov-14 10:29N 30°10' W 093°19'7 0.8
2017-Nov-14 01:42N 30°04' W 093°22'0 0.3
2017-Nov-14 01:29N 30°04' W 093°22'0 0.0
2017-Nov-14 00:59N 30°04' W 093°22'0 0.0
2017-Nov-14 00:29N 30°04' W 093°22'0 0.0
2017-Nov-13 22:49N 30°04' W 093°22'0 0.0
2017-Nov-13 22:29N 30°04' W 093°22'0 0.0
2017-Nov-13 21:59N 30°04' W 093°22'0 0.0
2017-Nov-13 01:04N 30°04' W 093°22'0 0.0
2017-Nov-13 00:59N 30°04' W 093°22'0 0.0
2017-Nov-13 00:29N 30°04' W 093°22'0 0.0
2017-Nov-12 23:59N 30°04' W 093°22'0 0.0
2017-Nov-12 23:29N 30°04' W 093°22'0 0.0
2017-Nov-12 22:59N 30°04' W 093°22'0 0.0
2017-Nov-12 22:29N 30°04' W 093°22'0 0.0
2017-Nov-12 21:59N 30°04' W 093°22'0 0.0
2017-Nov-12 21:29N 30°04' W 093°22'0 0.0
2017-Nov-12 20:59N 30°04' W 093°22'0 0.0
2017-Nov-12 20:29N 30°04' W 093°22'0 0.0
2017-Nov-12 19:59N 30°04' W 093°22'0 0.0
2017-Nov-12 19:29N 30°04' W 093°22'0 0.0
2017-Nov-12 18:59N 30°04' W 093°22'2 1.4
2017-Nov-12 17:38N 30°05' W 093°20'0 1.9
2017-Nov-12 17:27N 30°05' W 093°20'2 3.7
2017-Nov-12 16:59N 30°07' W 093°20'2 3.3
2017-Nov-12 16:30N 30°08' W 093°19'0 0.0
2017-Nov-12 15:59N 30°08' W 093°19'0 0.1
2017-Nov-12 15:29N 30°08' W 093°19'0 0.0
2017-Nov-12 14:59N 30°08' W 093°19'0 0.0
2017-Nov-12 14:27N 30°08' W 093°19'0 0.0
2017-Nov-12 13:55N 30°08' W 093°19'0 0.0
2017-Nov-12 13:27N 30°08' W 093°19'0 0.0
2017-Nov-12 12:59N 30°08' W 093°19'0 0.0
2017-Nov-12 12:29N 30°08' W 093°19'0 0.0
2017-Nov-12 11:53N 30°08' W 093°19'2 0.0
2017-Nov-10 16:30N 30°10' W 093°19'0 0.0
2017-Nov-10 16:00N 30°10' W 093°19'0 0.0
2017-Nov-10 15:30N 30°10' W 093°19'0 0.0
2017-Nov-10 15:00N 30°10' W 093°19'0 0.0
2017-Nov-10 14:31N 30°10' W 093°19'0 0.0
2017-Nov-10 14:00N 30°10' W 093°19'0 0.0
2017-Nov-10 13:30N 30°10' W 093°19'0 0.0
2017-Nov-10 13:00N 30°10' W 093°19'0 0.0
2017-Nov-10 12:30N 30°10' W 093°19'0 0.1
2017-Nov-10 12:00N 30°10' W 093°19'0 0.0
2017-Nov-10 11:30N 30°10' W 093°19'0 0.1
2017-Nov-10 11:00N 30°10' W 093°19'0 0.0
2017-Nov-10 10:30N 30°10' W 093°19'0 0.0
2017-Nov-10 10:00N 30°10' W 093°19'0 0.0
2017-Nov-10 09:30N 30°10' W 093°19'0 0.0
2017-Nov-10 09:00N 30°10' W 093°19'0 0.0
2017-Nov-10 08:30N 30°10' W 093°19'0 0.0
2017-Nov-10 08:00N 30°10' W 093°19'0 0.0
2017-Nov-10 07:30N 30°10' W 093°19'0 0.0
2017-Nov-10 07:00N 30°10' W 093°19'0 0.0
2017-Nov-10 06:30N 30°10' W 093°19'0 0.0
2017-Nov-10 06:00N 30°10' W 093°19'0 0.0
2017-Nov-10 05:30N 30°10' W 093°19'0 0.6
2017-Nov-10 05:01N 30°10' W 093°19'1 2.9
2017-Nov-10 04:30N 30°09' W 093°20'2 3.7
2017-Nov-10 04:00N 30°07' W 093°20'2 3.4
2017-Nov-10 03:30N 30°05' W 093°20'1 2.8
2017-Nov-10 03:00N 30°04' W 093°21'1 2.4
2017-Nov-10 02:30N 30°04' W 093°22'0 0.1
2017-Nov-10 02:00N 30°04' W 093°22'0 0.1
2017-Nov-10 01:31N 30°04' W 093°22'0 0.0
2017-Nov-10 01:00N 30°04' W 093°22'0 0.0
2017-Nov-10 00:30N 30°04' W 093°22'0 0.0
2017-Nov-10 00:00N 30°04' W 093°22'1 1.1
2017-Nov-09 23:30N 30°04' W 093°21'1 1.2
2017-Nov-09 23:00N 30°04' W 093°22'0 0.0
2017-Nov-09 22:30N 30°04' W 093°22'0 0.0
2017-Nov-09 22:00N 30°04' W 093°22'0 0.0
2017-Nov-09 21:30N 30°04' W 093°22'0 0.2
2017-Nov-09 21:00N 30°04' W 093°22'0 1.0
2017-Nov-09 20:30N 30°04' W 093°21'0 0.0
2017-Nov-09 20:00N 30°04' W 093°21'0 0.1
2017-Nov-09 19:30N 30°04' W 093°21'1 1.1
2017-Nov-09 19:00N 30°04' W 093°22'0 0.0
2017-Nov-09 18:30N 30°04' W 093°22'0 0.0
2017-Nov-09 18:00N 30°04' W 093°22'0 0.0
2017-Nov-09 17:30N 30°04' W 093°22'0 0.0
2017-Nov-09 17:00N 30°04' W 093°22'0 0.0
2017-Nov-09 16:30N 30°04' W 093°22'0 0.0
2017-Nov-09 16:00N 30°04' W 093°22'0 0.0
2017-Nov-09 15:30N 30°04' W 093°22'0 0.0
2017-Nov-09 15:00N 30°04' W 093°22'0 0.0
2017-Nov-09 14:30N 30°04' W 093°22'0 0.0
2017-Nov-09 14:00N 30°04' W 093°22'0 0.0
2017-Nov-09 13:30N 30°04' W 093°22'0 0.9
2017-Nov-09 13:00N 30°04' W 093°21'3 6.6
2017-Nov-09 12:30N 30°06' W 093°19'1 1.2
2017-Nov-09 12:00N 30°06' W 093°18'0 0.0
2017-Nov-09 11:30N 30°06' W 093°18'0 0.0
2017-Nov-09 11:00N 30°06' W 093°18'0 0.0
2017-Nov-09 10:30N 30°06' W 093°18'0 0.0
2017-Nov-09 10:01N 30°06' W 093°18'0 0.0
2017-Nov-09 09:30N 30°06' W 093°18'0 0.0
2017-Nov-09 09:00N 30°06' W 093°18'3 5.4
2017-Nov-09 08:30N 30°04' W 093°20'2 3.2
2017-Nov-09 08:00N 30°04' W 093°22'0 0.0
2017-Nov-09 07:31N 30°04' W 093°22'0 0.0
2017-Nov-09 07:00N 30°04' W 093°22'0 0.0
2017-Nov-09 06:30N 30°04' W 093°22'0 0.0
2017-Nov-09 06:00N 30°04' W 093°22'0 0.0
2017-Nov-09 05:30N 30°04' W 093°22'0 0.0
2017-Nov-09 05:00N 30°04' W 093°22'0 0.0
2017-Nov-09 04:30N 30°04' W 093°22'0 0.0
2017-Nov-09 04:00N 30°04' W 093°22'  

Dump ship's entire track history